sensor_id;sensor_type;location;lat;lon;timestamp;temperature;humidity
3566;DHT22;1797;51.844;7.684;2023-02-28T00:01:28;-1.50;99.90
3566;DHT22;1797;51.844;7.684;2023-02-28T00:03:54;-1.50;99.90
3566;DHT22;1797;51.844;7.684;2023-02-28T00:06:20;-1.50;99.90
3566;DHT22;1797;51.844;7.684;2023-02-28T00:08:46;-1.50;99.90
3566;DHT22;1797;51.844;7.684;2023-02-28T00:11:14;-1.60;99.90
3566;DHT22;1797;51.844;7.684;2023-02-28T00:13:42;-1.60;99.90
3566;DHT22;1797;51.844;7.684;2023-02-28T00:16:11;-1.60;1.00
3566;DHT22;1797;51.844;7.684;2023-02-28T00:18:38;-1.60;99.90
3566;DHT22;1797;51.844;7.684;2023-02-28T00:21:04;-1.70;99.90
3566;DHT22;1797;51.844;7.684;2023-02-28T00:23:31;-1.70;99.90
3566;DHT22;1797;51.844;7.684;2023-02-28T00:25:56;-1.80;99.90
3566;DHT22;1797;51.844;7.684;2023-02-28T00:28:22;-1.80;99.90
3566;DHT22;1797;51.844;7.684;2023-02-28T00:30:48;-1.90;1.00
3566;DHT22;1797;51.844;7.684;2023-02-28T00:33:14;-1.90;1.00
3566;DHT22;1797;51.844;7.684;2023-02-28T00:35:39;-1.90;1.00
3566;DHT22;1797;51.844;7.684;2023-02-28T00:38:05;-2.00;1.00
3566;DHT22;1797;51.844;7.684;2023-02-28T00:40:31;-2.00;1.00
3566;DHT22;1797;51.844;7.684;2023-02-28T00:42:57;-2.00;1.00
3566;DHT22;1797;51.844;7.684;2023-02-28T00:45:22;-2.00;1.00
3566;DHT22;1797;51.844;7.684;2023-02-28T00:47:48;-2.10;1.00
3566;DHT22;1797;51.844;7.684;2023-02-28T00:50:18;-2.00;1.00
3566;DHT22;1797;51.844;7.684;2023-02-28T00:52:45;-2.00;1.00
3566;DHT22;1797;51.844;7.684;2023-02-28T00:55:11;-2.10;1.00
3566;DHT22;1797;51.844;7.684;2023-02-28T00:57:36;-2.10;1.00
3566;DHT22;1797;51.844;7.684;2023-02-28T01:00:04;-2.10;1.00
3566;DHT22;1797;51.844;7.684;2023-02-28T01:02:29;-2.10;1.00
3566;DHT22;1797;51.844;7.684;2023-02-28T01:04:55;-2.10;99.90
3566;DHT22;1797;51.844;7.684;2023-02-28T01:07:22;-2.10;99.90
3566;DHT22;1797;51.844;7.684;2023-02-28T01:09:48;-2.10;99.90
3566;DHT22;1797;51.844;7.684;2023-02-28T01:12:14;-2.10;99.90
3566;DHT22;1797;51.844;7.684;2023-02-28T01:14:40;-2.00;99.90
3566;DHT22;1797;51.844;7.684;2023-02-28T01:17:06;-2.00;1.00
3566;DHT22;1797;51.844;7.684;2023-02-28T01:19:32;-2.00;99.90
3566;DHT22;1797;51.844;7.684;2023-02-28T01:22:03;-2.10;99.50
3566;DHT22;1797;51.844;7.684;2023-02-28T01:24:30;-2.10;99.90
3566;DHT22;1797;51.844;7.684;2023-02-28T01:26:56;-2.10;99.90
3566;DHT22;1797;51.844;7.684;2023-02-28T01:29:21;-2.20;99.90
3566;DHT22;1797;51.844;7.684;2023-02-28T01:31:47;-2.20;99.90
3566;DHT22;1797;51.844;7.684;2023-02-28T01:34:13;-2.20;99.90
3566;DHT22;1797;51.844;7.684;2023-02-28T01:36:38;-2.30;1.00
3566;DHT22;1797;51.844;7.684;2023-02-28T01:39:04;-2.30;1.00
3566;DHT22;1797;51.844;7.684;2023-02-28T01:41:32;-2.30;1.00
3566;DHT22;1797;51.844;7.684;2023-02-28T01:44:07;-2.30;94.10
3566;DHT22;1797;51.844;7.684;2023-02-28T01:46:35;-2.30;99.90
3566;DHT22;1797;51.844;7.684;2023-02-28T01:49:15;-2.30;99.90
3566;DHT22;1797;51.844;7.684;2023-02-28T01:51:45;-2.40;1.00
3566;DHT22;1797;51.844;7.684;2023-02-28T01:54:20;-2.50;1.00
3566;DHT22;1797;51.844;7.684;2023-02-28T01:56:52;-2.60;1.00
3566;DHT22;1797;51.844;7.684;2023-02-28T01:59:23;-2.70;1.00
3566;DHT22;1797;51.844;7.684;2023-02-28T02:01:50;-2.80;1.00
3566;DHT22;1797;51.844;7.684;2023-02-28T02:04:16;-2.80;1.00
3566;DHT22;1797;51.844;7.684;2023-02-28T02:06:44;-2.90;1.00
3566;DHT22;1797;51.844;7.684;2023-02-28T02:09:11;-2.90;22.00
3566;DHT22;1797;51.844;7.684;2023-02-28T02:11:38;-3.00;1.00
3566;DHT22;1797;51.844;7.684;2023-02-28T02:36:24;-3.00;1.00
3566;DHT22;1797;51.844;7.684;2023-02-28T02:39:02;-3.00;1.00
3566;DHT22;1797;51.844;7.684;2023-02-28T02:44:24;-2.90;1.00
3566;DHT22;1797;51.844;7.684;2023-02-28T02:46:55;-3.00;1.00
3566;DHT22;1797;51.844;7.684;2023-02-28T02:49:31;-3.10;99.90
3566;DHT22;1797;51.844;7.684;2023-02-28T02:52:03;-3.10;1.00
3566;DHT22;1797;51.844;7.684;2023-02-28T02:54:36;-3.00;7.40
3566;DHT22;1797;51.844;7.684;2023-02-28T02:57:11;-3.00;1.00
3566;DHT22;1797;51.844;7.684;2023-02-28T02:59:41;-3.00;99.90
3566;DHT22;1797;51.844;7.684;2023-02-28T03:02:10;-2.80;1.00
3566;DHT22;1797;51.844;7.684;2023-02-28T03:04:43;-2.80;99.90
3566;DHT22;1797;51.844;7.684;2023-02-28T03:07:11;-2.80;99.90
3566;DHT22;1797;51.844;7.684;2023-02-28T03:09:37;-3.00;1.00
3566;DHT22;1797;51.844;7.684;2023-02-28T03:12:03;-3.00;25.70
3566;DHT22;1797;51.844;7.684;2023-02-28T03:14:56;-3.10;1.00
3566;DHT22;1797;51.844;7.684;2023-02-28T03:17:30;-3.20;99.90
3566;DHT22;1797;51.844;7.684;2023-02-28T03:25:38;-3.20;1.00
3566;DHT22;1797;51.844;7.684;2023-02-28T03:28:16;-3.10;1.00
3566;DHT22;1797;51.844;7.684;2023-02-28T03:31:03;-3.10;32.70
3566;DHT22;1797;51.844;7.684;2023-02-28T03:34:03;-3.20;35.40
3566;DHT22;1797;51.844;7.684;2023-02-28T03:36:36;-3.20;20.40
3566;DHT22;1797;51.844;7.684;2023-02-28T03:39:16;-3.30;1.00
3566;DHT22;1797;51.844;7.684;2023-02-28T03:41:45;-3.40;72.60
3566;DHT22;1797;51.844;7.684;2023-02-28T03:44:21;-3.30;99.90
3566;DHT22;1797;51.844;7.684;2023-02-28T03:46:59;-3.40;99.90
3566;DHT22;1797;51.844;7.684;2023-02-28T03:49:33;-3.40;99.90
3566;DHT22;1797;51.844;7.684;2023-02-28T03:52:01;-3.40;99.90
3566;DHT22;1797;51.844;7.684;2023-02-28T03:54:38;-3.50;99.90
3566;DHT22;1797;51.844;7.684;2023-02-28T03:57:56;-3.50;99.40
3566;DHT22;1797;51.844;7.684;2023-02-28T04:00:09;-3.50;99.90
3566;DHT22;1797;51.844;7.684;2023-02-28T04:02:37;-3.40;99.90
3566;DHT22;1797;51.844;7.684;2023-02-28T04:05:05;-3.30;99.90
3566;DHT22;1797;51.844;7.684;2023-02-28T04:07:31;-3.30;99.90
3566;DHT22;1797;51.844;7.684;2023-02-28T04:09:58;-3.30;99.90
3566;DHT22;1797;51.844;7.684;2023-02-28T04:12:24;-3.30;96.10
3566;DHT22;1797;51.844;7.684;2023-02-28T04:14:49;-3.30;1.00
3566;DHT22;1797;51.844;7.684;2023-02-28T04:17:16;-3.30;1.00
3566;DHT22;1797;51.844;7.684;2023-02-28T04:19:41;-3.30;1.00
3566;DHT22;1797;51.844;7.684;2023-02-28T04:22:08;-3.30;99.90
3566;DHT22;1797;51.844;7.684;2023-02-28T04:24:35;-3.30;99.90
3566;DHT22;1797;51.844;7.684;2023-02-28T04:27:01;-3.40;1.00
3566;DHT22;1797;51.844;7.684;2023-02-28T04:29:29;-3.30;1.00
3566;DHT22;1797;51.844;7.684;2023-02-28T04:31:55;-3.30;99.90
3566;DHT22;1797;51.844;7.684;2023-02-28T04:34:25;-3.30;99.90
3566;DHT22;1797;51.844;7.684;2023-02-28T04:36:51;-3.40;1.00
3566;DHT22;1797;51.844;7.684;2023-02-28T04:39:20;-3.60;1.00
3566;DHT22;1797;51.844;7.684;2023-02-28T04:41:46;-3.60;1.00
3566;DHT22;1797;51.844;7.684;2023-02-28T04:44:12;-3.70;5.50
3566;DHT22;1797;51.844;7.684;2023-02-28T04:46:38;-3.70;1.00
3566;DHT22;1797;51.844;7.684;2023-02-28T04:49:03;-3.70;1.00
3566;DHT22;1797;51.844;7.684;2023-02-28T04:51:29;-3.80;1.00
3566;DHT22;1797;51.844;7.684;2023-02-28T04:53:55;-3.70;1.00
3566;DHT22;1797;51.844;7.684;2023-02-28T04:56:21;-3.70;1.00
3566;DHT22;1797;51.844;7.684;2023-02-28T04:58:47;-3.80;1.00
3566;DHT22;1797;51.844;7.684;2023-02-28T05:03:50;-3.80;1.00
3566;DHT22;1797;51.844;7.684;2023-02-28T05:06:17;-3.80;1.00
3566;DHT22;1797;51.844;7.684;2023-02-28T05:08:43;-3.90;1.00
3566;DHT22;1797;51.844;7.684;2023-02-28T05:11:20;-3.90;1.00
3566;DHT22;1797;51.844;7.684;2023-02-28T05:13:48;-3.80;1.00
3566;DHT22;1797;51.844;7.684;2023-02-28T05:16:14;-3.90;1.00
3566;DHT22;1797;51.844;7.684;2023-02-28T05:18:39;-4.00;1.00
3566;DHT22;1797;51.844;7.684;2023-02-28T05:21:05;-4.00;1.00
3566;DHT22;1797;51.844;7.684;2023-02-28T05:23:31;-4.00;1.00
3566;DHT22;1797;51.844;7.684;2023-02-28T05:25:57;-4.10;1.00
3566;DHT22;1797;51.844;7.684;2023-02-28T05:28:23;-4.10;1.00
3566;DHT22;1797;51.844;7.684;2023-02-28T05:30:49;-4.10;1.00
3566;DHT22;1797;51.844;7.684;2023-02-28T05:33:14;-4.10;1.00
3566;DHT22;1797;51.844;7.684;2023-02-28T05:35:41;-4.20;1.00
3566;DHT22;1797;51.844;7.684;2023-02-28T05:38:08;-4.20;1.00
3566;DHT22;1797;51.844;7.684;2023-02-28T05:40:34;-4.20;1.00
3566;DHT22;1797;51.844;7.684;2023-02-28T05:43:00;-4.20;1.00
3566;DHT22;1797;51.844;7.684;2023-02-28T05:45:26;-4.10;1.00
3566;DHT22;1797;51.844;7.684;2023-02-28T05:47:55;-4.10;1.20
3566;DHT22;1797;51.844;7.684;2023-02-28T05:50:20;-4.00;13.50
3566;DHT22;1797;51.844;7.684;2023-02-28T05:52:52;-4.00;1.00
3566;DHT22;1797;51.844;7.684;2023-02-28T05:55:18;-3.80;1.00
3566;DHT22;1797;51.844;7.684;2023-02-28T05:57:44;-3.90;1.00
3566;DHT22;1797;51.844;7.684;2023-02-28T06:00:10;-4.00;1.00
3566;DHT22;1797;51.844;7.684;2023-02-28T06:02:36;-4.00;1.00
3566;DHT22;1797;51.844;7.684;2023-02-28T06:05:01;-4.00;1.00
3566;DHT22;1797;51.844;7.684;2023-02-28T06:07:27;-4.00;1.00
3566;DHT22;1797;51.844;7.684;2023-02-28T06:09:52;-3.90;1.00
3566;DHT22;1797;51.844;7.684;2023-02-28T06:12:18;-3.80;1.00
3566;DHT22;1797;51.844;7.684;2023-02-28T06:14:43;-3.80;1.00
3566;DHT22;1797;51.844;7.684;2023-02-28T06:17:09;-3.80;99.90
3566;DHT22;1797;51.844;7.684;2023-02-28T06:19:37;-3.90;93.80
3566;DHT22;1797;51.844;7.684;2023-02-28T06:22:04;-3.90;1.00
3566;DHT22;1797;51.844;7.684;2023-02-28T06:24:30;-4.00;1.00
3566;DHT22;1797;51.844;7.684;2023-02-28T06:26:56;-4.10;99.90
3566;DHT22;1797;51.844;7.684;2023-02-28T06:29:24;-4.10;1.00
3566;DHT22;1797;51.844;7.684;2023-02-28T06:31:49;-4.10;1.00
3566;DHT22;1797;51.844;7.684;2023-02-28T06:34:15;-4.10;1.00
3566;DHT22;1797;51.844;7.684;2023-02-28T06:36:41;-4.10;1.00
3566;DHT22;1797;51.844;7.684;2023-02-28T06:39:08;-4.10;1.00
3566;DHT22;1797;51.844;7.684;2023-02-28T06:41:34;-4.10;1.00
3566;DHT22;1797;51.844;7.684;2023-02-28T06:44:04;-4.10;42.90
3566;DHT22;1797;51.844;7.684;2023-02-28T06:46:31;-4.10;1.00
3566;DHT22;1797;51.844;7.684;2023-02-28T06:48:57;-4.10;1.00
3566;DHT22;1797;51.844;7.684;2023-02-28T06:51:23;-4.20;1.00
3566;DHT22;1797;51.844;7.684;2023-02-28T06:53:50;-4.20;1.00
3566;DHT22;1797;51.844;7.684;2023-02-28T06:56:17;-4.20;1.00
3566;DHT22;1797;51.844;7.684;2023-02-28T06:58:49;-4.20;1.00
3566;DHT22;1797;51.844;7.684;2023-02-28T07:01:15;-4.20;1.00
3566;DHT22;1797;51.844;7.684;2023-02-28T07:03:40;-4.30;99.90
3566;DHT22;1797;51.844;7.684;2023-02-28T07:06:06;-4.30;99.90
3566;DHT22;1797;51.844;7.684;2023-02-28T07:08:33;-4.30;99.90
3566;DHT22;1797;51.844;7.684;2023-02-28T07:10:59;-4.30;94.80
3566;DHT22;1797;51.844;7.684;2023-02-28T07:13:24;-4.20;91.40
3566;DHT22;1797;51.844;7.684;2023-02-28T07:16:01;-4.10;24.10
3566;DHT22;1797;51.844;7.684;2023-02-28T07:18:28;-3.90;99.90
3566;DHT22;1797;51.844;7.684;2023-02-28T07:20:54;-3.80;1.00
3566;DHT22;1797;51.844;7.684;2023-02-28T07:23:20;-3.70;1.00
3566;DHT22;1797;51.844;7.684;2023-02-28T07:25:46;-3.70;99.90
3566;DHT22;1797;51.844;7.684;2023-02-28T07:28:13;-3.60;99.90
3566;DHT22;1797;51.844;7.684;2023-02-28T07:30:39;-3.60;99.90
3566;DHT22;1797;51.844;7.684;2023-02-28T07:33:05;-3.40;99.90
3566;DHT22;1797;51.844;7.684;2023-02-28T07:35:31;-3.40;99.90
3566;DHT22;1797;51.844;7.684;2023-02-28T07:37:59;-3.30;1.00
3566;DHT22;1797;51.844;7.684;2023-02-28T07:40:26;-3.20;1.00
3566;DHT22;1797;51.844;7.684;2023-02-28T07:42:51;-3.00;1.00
3566;DHT22;1797;51.844;7.684;2023-02-28T07:45:18;-2.90;1.00
3566;DHT22;1797;51.844;7.684;2023-02-28T07:47:44;-2.70;1.00
3566;DHT22;1797;51.844;7.684;2023-02-28T07:50:13;-2.60;13.70
3566;DHT22;1797;51.844;7.684;2023-02-28T07:52:39;-2.60;99.90
3566;DHT22;1797;51.844;7.684;2023-02-28T07:55:06;-2.60;1.00
3566;DHT22;1797;51.844;7.684;2023-02-28T07:57:32;-2.60;1.00
3566;DHT22;1797;51.844;7.684;2023-02-28T07:59:58;-2.60;1.00
3566;DHT22;1797;51.844;7.684;2023-02-28T08:02:24;-2.50;1.00
3566;DHT22;1797;51.844;7.684;2023-02-28T08:04:49;-2.50;1.00
3566;DHT22;1797;51.844;7.684;2023-02-28T08:07:16;-2.40;1.00
3566;DHT22;1797;51.844;7.684;2023-02-28T08:09:42;-2.20;1.00
3566;DHT22;1797;51.844;7.684;2023-02-28T08:12:09;-2.00;99.90
3566;DHT22;1797;51.844;7.684;2023-02-28T08:14:35;-1.80;1.00
3566;DHT22;1797;51.844;7.684;2023-02-28T08:17:02;-1.60;99.90
3566;DHT22;1797;51.844;7.684;2023-02-28T08:19:28;-1.60;93.40
3566;DHT22;1797;51.844;7.684;2023-02-28T08:21:54;-1.40;2.80
3566;DHT22;1797;51.844;7.684;2023-02-28T08:24:20;-1.30;1.00
3566;DHT22;1797;51.844;7.684;2023-02-28T08:26:46;-1.20;1.00
3566;DHT22;1797;51.844;7.684;2023-02-28T08:29:11;-1.20;99.90
3566;DHT22;1797;51.844;7.684;2023-02-28T08:31:37;-1.00;99.90
3566;DHT22;1797;51.844;7.684;2023-02-28T08:34:08;-0.90;10.60
3566;DHT22;1797;51.844;7.684;2023-02-28T08:36:34;-0.70;1.00
3566;DHT22;1797;51.844;7.684;2023-02-28T08:38:59;-0.50;1.00
3566;DHT22;1797;51.844;7.684;2023-02-28T08:41:25;-0.30;1.00
3566;DHT22;1797;51.844;7.684;2023-02-28T08:43:51;-0.20;1.00
3566;DHT22;1797;51.844;7.684;2023-02-28T08:46:17;0.00;1.00
3566;DHT22;1797;51.844;7.684;2023-02-28T08:48:44;0.30;1.00
3566;DHT22;1797;51.844;7.684;2023-02-28T08:51:15;0.50;1.00
3566;DHT22;1797;51.844;7.684;2023-02-28T08:53:44;0.60;99.90
3566;DHT22;1797;51.844;7.684;2023-02-28T08:56:12;0.80;99.90
3566;DHT22;1797;51.844;7.684;2023-02-28T08:58:38;1.00;99.90
3566;DHT22;1797;51.844;7.684;2023-02-28T09:01:12;1.30;99.90
3566;DHT22;1797;51.844;7.684;2023-02-28T09:03:38;1.50;94.80
3566;DHT22;1797;51.844;7.684;2023-02-28T09:06:06;1.70;19.20
3566;DHT22;1797;51.844;7.684;2023-02-28T09:08:32;2.00;1.00
3566;DHT22;1797;51.844;7.684;2023-02-28T09:10:58;2.20;1.00
3566;DHT22;1797;51.844;7.684;2023-02-28T09:13:25;2.40;1.00
3566;DHT22;1797;51.844;7.684;2023-02-28T09:15:51;2.70;1.00
3566;DHT22;1797;51.844;7.684;2023-02-28T09:18:17;2.90;1.00
3566;DHT22;1797;51.844;7.684;2023-02-28T09:20:43;3.10;1.00
3566;DHT22;1797;51.844;7.684;2023-02-28T09:23:10;3.20;1.00
3566;DHT22;1797;51.844;7.684;2023-02-28T09:25:37;3.40;1.00
3566;DHT22;1797;51.844;7.684;2023-02-28T09:28:03;3.60;1.00
3566;DHT22;1797;51.844;7.684;2023-02-28T09:30:30;3.80;1.00
3566;DHT22;1797;51.844;7.684;2023-02-28T09:32:56;3.90;1.00
3566;DHT22;1797;51.844;7.684;2023-02-28T09:35:23;4.20;1.00
3566;DHT22;1797;51.844;7.684;2023-02-28T09:37:50;4.30;1.00
3566;DHT22;1797;51.844;7.684;2023-02-28T09:40:21;4.50;99.90
3566;DHT22;1797;51.844;7.684;2023-02-28T09:42:50;4.60;99.90
3566;DHT22;1797;51.844;7.684;2023-02-28T09:45:26;4.70;99.90
3566;DHT22;1797;51.844;7.684;2023-02-28T09:47:56;4.90;99.90
3566;DHT22;1797;51.844;7.684;2023-02-28T09:50:46;5.00;99.90
3566;DHT22;1797;51.844;7.684;2023-02-28T09:53:27;5.30;99.90
3566;DHT22;1797;51.844;7.684;2023-02-28T09:56:09;5.40;99.90
3566;DHT22;1797;51.844;7.684;2023-02-28T10:04:00;5.60;99.90
3566;DHT22;1797;51.844;7.684;2023-02-28T10:06:32;5.70;99.90
3566;DHT22;1797;51.844;7.684;2023-02-28T10:09:26;5.90;99.90
3566;DHT22;1797;51.844;7.684;2023-02-28T10:12:03;6.00;99.90
3566;DHT22;1797;51.844;7.684;2023-02-28T10:14:34;6.10;99.90
3566;DHT22;1797;51.844;7.684;2023-02-28T10:22:39;6.30;99.90
3566;DHT22;1797;51.844;7.684;2023-02-28T10:25:29;6.50;99.90
3566;DHT22;1797;51.844;7.684;2023-02-28T10:28:01;6.70;99.90
3566;DHT22;1797;51.844;7.684;2023-02-28T10:30:31;7.00;99.90
3566;DHT22;1797;51.844;7.684;2023-02-28T10:32:56;7.20;99.90
3566;DHT22;1797;51.844;7.684;2023-02-28T10:35:24;7.10;99.90
3566;DHT22;1797;51.844;7.684;2023-02-28T10:37:54;6.90;99.90
3566;DHT22;1797;51.844;7.684;2023-02-28T10:45:23;6.60;99.90
3566;DHT22;1797;51.844;7.684;2023-02-28T10:47:58;6.30;99.90
3566;DHT22;1797;51.844;7.684;2023-02-28T10:50:35;6.10;99.90
3566;DHT22;1797;51.844;7.684;2023-02-28T10:56:19;6.80;99.90
3566;DHT22;1797;51.844;7.684;2023-02-28T11:03:49;7.00;99.90
3566;DHT22;1797;51.844;7.684;2023-02-28T11:06:36;6.60;99.90
3566;DHT22;1797;51.844;7.684;2023-02-28T11:09:04;6.30;99.90
3566;DHT22;1797;51.844;7.684;2023-02-28T11:11:43;6.10;99.90
3566;DHT22;1797;51.844;7.684;2023-02-28T11:14:21;5.90;99.90
3566;DHT22;1797;51.844;7.684;2023-02-28T11:16:49;5.60;99.90
3566;DHT22;1797;51.844;7.684;2023-02-28T11:19:34;5.50;99.90
3566;DHT22;1797;51.844;7.684;2023-02-28T11:22:05;5.50;99.90
3566;DHT22;1797;51.844;7.684;2023-02-28T11:24:35;5.60;99.90
3566;DHT22;1797;51.844;7.684;2023-02-28T11:27:02;6.00;99.90
3566;DHT22;1797;51.844;7.684;2023-02-28T11:29:30;6.60;99.90
3566;DHT22;1797;51.844;7.684;2023-02-28T11:32:04;6.70;99.90
3566;DHT22;1797;51.844;7.684;2023-02-28T11:34:30;6.80;99.90
3566;DHT22;1797;51.844;7.684;2023-02-28T11:36:59;6.90;99.90
3566;DHT22;1797;51.844;7.684;2023-02-28T11:39:26;6.90;99.90
3566;DHT22;1797;51.844;7.684;2023-02-28T11:42:14;6.90;99.90
3566;DHT22;1797;51.844;7.684;2023-02-28T11:47:48;7.40;99.90
3566;DHT22;1797;51.844;7.684;2023-02-28T11:53:21;7.50;99.90
3566;DHT22;1797;51.844;7.684;2023-02-28T11:56:09;7.60;99.90
3566;DHT22;1797;51.844;7.684;2023-02-28T12:08:03;8.30;99.90
3566;DHT22;1797;51.844;7.684;2023-02-28T12:10:37;8.50;99.90
3566;DHT22;1797;51.844;7.684;2023-02-28T12:13:27;8.50;99.90
3566;DHT22;1797;51.844;7.684;2023-02-28T12:21:37;8.70;99.90
3566;DHT22;1797;51.844;7.684;2023-02-28T12:24:30;8.70;99.90
3566;DHT22;1797;51.844;7.684;2023-02-28T12:27:03;8.80;99.90
3566;DHT22;1797;51.844;7.684;2023-02-28T12:29:34;8.60;99.90
3566;DHT22;1797;51.844;7.684;2023-02-28T12:32:21;8.60;99.90
3566;DHT22;1797;51.844;7.684;2023-02-28T12:34:50;8.60;99.90
3566;DHT22;1797;51.844;7.684;2023-02-28T12:37:41;8.60;99.90
3566;DHT22;1797;51.844;7.684;2023-02-28T12:40:13;8.60;99.90
3566;DHT22;1797;51.844;7.684;2023-02-28T12:42:58;8.50;99.90
3566;DHT22;1797;51.844;7.684;2023-02-28T12:48:14;8.40;99.90
3566;DHT22;1797;51.844;7.684;2023-02-28T12:50:41;8.50;99.90
3566;DHT22;1797;51.844;7.684;2023-02-28T12:53:22;8.50;99.90
3566;DHT22;1797;51.844;7.684;2023-02-28T12:58:39;8.70;99.90
3566;DHT22;1797;51.844;7.684;2023-02-28T13:09:39;8.90;99.90
3566;DHT22;1797;51.844;7.684;2023-02-28T13:12:15;8.80;99.90
3566;DHT22;1797;51.844;7.684;2023-02-28T13:14:42;8.70;99.90
3566;DHT22;1797;51.844;7.684;2023-02-28T13:19:45;8.70;99.90
3566;DHT22;1797;51.844;7.684;2023-02-28T13:24:51;8.60;99.90
3566;DHT22;1797;51.844;7.684;2023-02-28T13:27:38;8.40;99.90
3566;DHT22;1797;51.844;7.684;2023-02-28T13:33:29;8.20;99.90
3566;DHT22;1797;51.844;7.684;2023-02-28T13:38:49;8.20;99.90
3566;DHT22;1797;51.844;7.684;2023-02-28T13:58:10;6.80;99.90
3566;DHT22;1797;51.844;7.684;2023-02-28T14:00:58;6.70;99.90
3566;DHT22;1797;51.844;7.684;2023-02-28T14:06:34;6.70;99.90
3566;DHT22;1797;51.844;7.684;2023-02-28T14:09:23;6.70;99.90
3566;DHT22;1797;51.844;7.684;2023-02-28T14:11:50;6.70;99.90
3566;DHT22;1797;51.844;7.684;2023-02-28T14:17:15;6.40;99.90
3566;DHT22;1797;51.844;7.684;2023-02-28T14:19:44;6.30;99.90
3566;DHT22;1797;51.844;7.684;2023-02-28T14:22:40;6.20;99.90
3566;DHT22;1797;51.844;7.684;2023-02-28T14:25:16;6.20;99.90
3566;DHT22;1797;51.844;7.684;2023-02-28T14:30:57;6.10;99.90
3566;DHT22;1797;51.844;7.684;2023-02-28T14:33:42;6.10;99.90
3566;DHT22;1797;51.844;7.684;2023-02-28T14:36:25;6.00;99.90
3566;DHT22;1797;51.844;7.684;2023-02-28T14:39:22;5.90;99.90
3566;DHT22;1797;51.844;7.684;2023-02-28T14:41:46;5.90;99.90
3566;DHT22;1797;51.844;7.684;2023-02-28T14:44:18;5.90;99.90
3566;DHT22;1797;51.844;7.684;2023-02-28T14:46:47;5.80;99.90
3566;DHT22;1797;51.844;7.684;2023-02-28T14:51:49;5.80;99.90
3566;DHT22;1797;51.844;7.684;2023-02-28T14:54:16;5.80;99.90
3566;DHT22;1797;51.844;7.684;2023-02-28T14:56:48;5.80;99.90
3566;DHT22;1797;51.844;7.684;2023-02-28T14:59:29;5.90;99.90
3566;DHT22;1797;51.844;7.684;2023-02-28T15:04:41;5.90;99.90
3566;DHT22;1797;51.844;7.684;2023-02-28T15:07:13;5.90;99.90
3566;DHT22;1797;51.844;7.684;2023-02-28T15:09:39;5.90;99.90
3566;DHT22;1797;51.844;7.684;2023-02-28T15:12:05;5.80;99.90
3566;DHT22;1797;51.844;7.684;2023-02-28T15:14:31;5.80;99.90
3566;DHT22;1797;51.844;7.684;2023-02-28T15:17:00;5.70;99.90
3566;DHT22;1797;51.844;7.684;2023-02-28T15:19:32;5.70;99.90
3566;DHT22;1797;51.844;7.684;2023-02-28T15:22:12;5.60;99.90
3566;DHT22;1797;51.844;7.684;2023-02-28T15:24:43;5.60;99.90
3566;DHT22;1797;51.844;7.684;2023-02-28T15:27:22;5.60;99.90
3566;DHT22;1797;51.844;7.684;2023-02-28T15:30:14;5.60;99.90
3566;DHT22;1797;51.844;7.684;2023-02-28T15:32:41;5.60;99.90
3566;DHT22;1797;51.844;7.684;2023-02-28T15:35:27;5.50;99.90
3566;DHT22;1797;51.844;7.684;2023-02-28T15:37:55;5.50;99.90
3566;DHT22;1797;51.844;7.684;2023-02-28T15:40:31;5.50;99.90
3566;DHT22;1797;51.844;7.684;2023-02-28T15:43:16;5.50;99.90
3566;DHT22;1797;51.844;7.684;2023-02-28T15:46:27;5.50;99.90
3566;DHT22;1797;51.844;7.684;2023-02-28T15:48:43;5.50;99.90
3566;DHT22;1797;51.844;7.684;2023-02-28T15:51:22;5.40;99.90
3566;DHT22;1797;51.844;7.684;2023-02-28T15:53:51;5.30;99.90
3566;DHT22;1797;51.844;7.684;2023-02-28T15:56:32;5.20;99.90
3566;DHT22;1797;51.844;7.684;2023-02-28T15:59:03;5.20;99.90
3566;DHT22;1797;51.844;7.684;2023-02-28T16:01:31;5.20;99.90
3566;DHT22;1797;51.844;7.684;2023-02-28T16:04:06;5.10;99.90
3566;DHT22;1797;51.844;7.684;2023-02-28T16:06:41;5.10;99.90
3566;DHT22;1797;51.844;7.684;2023-02-28T16:09:13;5.10;99.90
3566;DHT22;1797;51.844;7.684;2023-02-28T16:11:48;5.10;99.90
3566;DHT22;1797;51.844;7.684;2023-02-28T16:14:25;5.00;99.90
3566;DHT22;1797;51.844;7.684;2023-02-28T16:17:03;5.00;99.90
3566;DHT22;1797;51.844;7.684;2023-02-28T16:19:29;5.00;99.90
3566;DHT22;1797;51.844;7.684;2023-02-28T16:21:54;5.00;99.90
3566;DHT22;1797;51.844;7.684;2023-02-28T16:24:20;4.90;99.90
3566;DHT22;1797;51.844;7.684;2023-02-28T16:26:48;4.80;99.90
3566;DHT22;1797;51.844;7.684;2023-02-28T16:29:36;4.80;99.90
3566;DHT22;1797;51.844;7.684;2023-02-28T16:32:04;4.70;99.90
3566;DHT22;1797;51.844;7.684;2023-02-28T16:34:30;4.70;99.90
3566;DHT22;1797;51.844;7.684;2023-02-28T16:36:56;4.60;99.90
3566;DHT22;1797;51.844;7.684;2023-02-28T16:39:22;4.50;99.90
3566;DHT22;1797;51.844;7.684;2023-02-28T16:41:49;4.50;99.90
3566;DHT22;1797;51.844;7.684;2023-02-28T16:44:33;4.40;99.90
3566;DHT22;1797;51.844;7.684;2023-02-28T16:47:00;4.50;99.90
3566;DHT22;1797;51.844;7.684;2023-02-28T16:49:26;4.40;99.90
3566;DHT22;1797;51.844;7.684;2023-02-28T16:51:52;4.30;99.90
3566;DHT22;1797;51.844;7.684;2023-02-28T16:54:18;4.30;99.90
3566;DHT22;1797;51.844;7.684;2023-02-28T16:56:46;4.20;99.90
3566;DHT22;1797;51.844;7.684;2023-02-28T16:59:13;4.10;99.90
3566;DHT22;1797;51.844;7.684;2023-02-28T17:01:39;4.00;99.90
3566;DHT22;1797;51.844;7.684;2023-02-28T17:04:05;4.00;99.90
3566;DHT22;1797;51.844;7.684;2023-02-28T17:06:30;3.90;99.90
3566;DHT22;1797;51.844;7.684;2023-02-28T17:08:57;3.80;1.00
3566;DHT22;1797;51.844;7.684;2023-02-28T17:11:25;3.80;1.00
3566;DHT22;1797;51.844;7.684;2023-02-28T17:13:51;3.60;1.00
3566;DHT22;1797;51.844;7.684;2023-02-28T17:16:31;3.50;1.00
3566;DHT22;1797;51.844;7.684;2023-02-28T17:19:00;3.50;1.00
3566;DHT22;1797;51.844;7.684;2023-02-28T17:21:26;3.40;1.00
3566;DHT22;1797;51.844;7.684;2023-02-28T17:23:52;3.40;1.00
3566;DHT22;1797;51.844;7.684;2023-02-28T17:26:20;3.30;1.00
3566;DHT22;1797;51.844;7.684;2023-02-28T17:28:47;3.20;1.00
3566;DHT22;1797;51.844;7.684;2023-02-28T17:31:13;3.00;1.00
3566;DHT22;1797;51.844;7.684;2023-02-28T17:33:38;2.90;1.00
3566;DHT22;1797;51.844;7.684;2023-02-28T17:36:05;2.90;1.00
3566;DHT22;1797;51.844;7.684;2023-02-28T17:38:31;2.80;1.00
3566;DHT22;1797;51.844;7.684;2023-02-28T17:40:56;2.70;1.00
3566;DHT22;1797;51.844;7.684;2023-02-28T17:43:24;2.70;1.00
3566;DHT22;1797;51.844;7.684;2023-02-28T17:45:50;2.60;1.00
3566;DHT22;1797;51.844;7.684;2023-02-28T17:48:15;2.60;1.00
3566;DHT22;1797;51.844;7.684;2023-02-28T17:50:42;2.50;1.00
3566;DHT22;1797;51.844;7.684;2023-02-28T17:53:07;2.40;1.00
3566;DHT22;1797;51.844;7.684;2023-02-28T17:55:33;2.40;1.00
3566;DHT22;1797;51.844;7.684;2023-02-28T17:57:59;2.50;1.00
3566;DHT22;1797;51.844;7.684;2023-02-28T18:00:25;2.40;1.00
3566;DHT22;1797;51.844;7.684;2023-02-28T18:02:51;2.30;1.00
3566;DHT22;1797;51.844;7.684;2023-02-28T18:05:17;2.20;1.00
3566;DHT22;1797;51.844;7.684;2023-02-28T18:07:43;2.10;1.00
3566;DHT22;1797;51.844;7.684;2023-02-28T18:10:17;2.10;1.00
3566;DHT22;1797;51.844;7.684;2023-02-28T18:12:45;2.10;1.00
3566;DHT22;1797;51.844;7.684;2023-02-28T18:15:11;2.10;1.00
3566;DHT22;1797;51.844;7.684;2023-02-28T18:17:37;2.00;1.00
3566;DHT22;1797;51.844;7.684;2023-02-28T18:20:03;2.00;1.00
3566;DHT22;1797;51.844;7.684;2023-02-28T18:22:29;2.00;1.00
3566;DHT22;1797;51.844;7.684;2023-02-28T18:24:55;1.90;1.00
3566;DHT22;1797;51.844;7.684;2023-02-28T18:27:21;1.90;1.00
3566;DHT22;1797;51.844;7.684;2023-02-28T18:29:47;1.90;1.00
3566;DHT22;1797;51.844;7.684;2023-02-28T18:32:13;1.90;1.00
3566;DHT22;1797;51.844;7.684;2023-02-28T18:34:39;1.80;1.00
3566;DHT22;1797;51.844;7.684;2023-02-28T18:37:05;1.80;1.00
3566;DHT22;1797;51.844;7.684;2023-02-28T18:39:31;1.80;1.00
3566;DHT22;1797;51.844;7.684;2023-02-28T18:41:57;1.70;1.00
3566;DHT22;1797;51.844;7.684;2023-02-28T18:44:22;1.70;1.00
3566;DHT22;1797;51.844;7.684;2023-02-28T18:46:49;1.60;1.00
3566;DHT22;1797;51.844;7.684;2023-02-28T18:49:14;1.60;1.00